Terminal Aerodrome Forecast
Issued by NWS

Home | Current Version | Previous Version | Text Only | Print | Product List | Glossary On
Versions: 1 2 3 4 5 6 7 8 9 10 11 12 13 14 15 16 17 18 19 20 21 22 23 24 25 26 27 28 29 30 31 32 33 34 35 36 37 38 39 40 41 42 43 44 45 46 47 48 49 50
000
FTUS43 KDMX 221739
TAFFOD
TAF
KFOD 221739Z 2218/2318 11010KT 3SM -RA BR OVC006
     FM230300 08009KT 3SM -RASN BR OVC004
     FM230600 04008KT 2SM -SN BR OVC003
     FM231200 36008KT 2SM -SN BR OVC003=

USA.gov is the U.S. government's official web portal to all federal, state and local government web resources and services.